Time;durP1;ratioP1;P1;durP2;ratioP2;P2;SDS_P1;SDS_P2;PMS_P1;PMS_P2;Temp;Humidity;BMP_temperature;BMP_pressure;BME280_temperature;BME280_humidity;BME280_pressure;Samples;Min_cycle;Max_cycle;Signal;HPM_P1;HPM_P2
2022/03/13 00:00:34;;;;;;;15.18;4.53;;;;;;;-149.78;100.00;50350.19;4822921;29;20179;-69
2022/03/13 00:03:04;;;;;;;13.85;3.67;;;;;;;-149.78;100.00;50361.91;4824523;29;20175;-69
2022/03/13 00:05:30;;;;;;;8.00;3.80;;;;;;;-149.78;100.00;50385.38;4824439;29;20165;-69
2022/03/13 00:07:56;;;;;;;12.05;4.05;;;;;;;-149.78;100.00;50373.66;4808237;29;20180;-69
2022/03/13 00:10:27;;;;;;;8.23;3.38;;;;;;;-149.78;100.00;50377.56;4793185;29;20034;-69
2022/03/13 00:12:54;;;;;;;13.52;3.92;;;;;;;-149.78;100.00;50301.28;4823270;29;20034;-69
2022/03/13 00:15:35;;;;;;;13.70;4.28;;;;;;;-149.78;100.00;50346.28;4807459;29;20072;-69
2022/03/13 00:18:02;;;;;;;14.88;4.05;;;;;;;-149.78;100.00;50350.19;4823041;29;20034;-69
2022/03/13 00:20:28;;;;;;;10.73;3.75;;;;;;;-149.78;100.00;50369.75;4823050;29;20038;-69
2022/03/13 00:22:54;;;;;;;11.32;4.13;;;;;;;-149.78;100.00;50358.00;4807740;29;20042;-69
2022/03/13 00:25:21;;;;;;;7.47;3.40;;;;;;;-149.78;100.00;50377.56;4823063;29;20380;-69
2022/03/13 00:27:47;;;;;;;8.88;3.40;;;;;;;-149.78;100.00;50346.28;4807890;29;20042;-69
2022/03/13 00:30:15;;;;;;;7.72;3.65;;;;;;;-149.78;100.00;50359.97;4807740;29;20692;-70
2022/03/13 00:32:40;;;;;;;11.10;3.72;;;;;;;-149.78;100.00;50373.66;4822845;29;20041;-70
2022/03/13 00:35:07;;;;;;;9.30;4.28;;;;;;;-149.78;100.00;50365.84;4824165;29;20062;-69
2022/03/13 00:37:32;;;;;;;11.65;4.28;;;;;;;-149.78;100.00;50369.75;4807640;29;20061;-69
2022/03/13 00:40:00;;;;;;;12.60;3.92;;;;;;;-149.78;100.00;50361.91;4823809;29;20042;-69
2022/03/13 00:42:26;;;;;;;12.73;4.20;;;;;;;-149.78;100.00;50358.00;4823802;29;20043;-69
2022/03/13 00:44:51;;;;;;;17.10;4.60;;;;;;;-149.78;100.00;50377.56;4822921;29;20475;-69
2022/03/13 00:47:19;;;;;;;11.35;4.35;;;;;;;-149.78;100.00;50404.94;4807400;29;20122;-70
2022/03/13 00:49:48;;;;;;;10.35;4.28;;;;;;;-149.78;100.00;50346.28;4822826;29;20516;-69
2022/03/13 00:52:14;;;;;;;22.27;5.13;;;;;;;-149.78;100.00;50356.06;4807451;29;20035;-69
2022/03/13 00:54:40;;;;;;;10.90;5.00;;;;;;;-149.78;100.00;50369.75;4823999;29;20060;-69
2022/03/13 00:57:06;;;;;;;13.57;4.85;;;;;;;-149.78;100.00;50354.09;4823828;29;20044;-69
2022/03/13 00:59:32;;;;;;;8.82;4.75;;;;;;;-149.78;100.00;50393.22;4807143;29;20138;-68
2022/03/13 01:01:58;;;;;;;12.38;5.05;;;;;;;-149.78;100.00;50393.22;4823627;29;20050;-69
2022/03/13 01:04:24;;;;;;;13.30;4.82;;;;;;;-149.78;100.00;50373.66;4822720;29;20078;-69
2022/03/13 01:06:49;;;;;;;11.88;5.65;;;;;;;-149.78;100.00;50359.97;4823716;29;20121;-69
2022/03/13 01:09:15;;;;;;;15.98;5.45;;;;;;;-149.78;100.00;50389.31;4823690;29;20624;-69
2022/03/13 01:11:41;;;;;;;13.90;5.03;;;;;;;-149.78;100.00;50379.53;4807220;29;20525;-69
2022/03/13 01:14:10;;;;;;;11.02;5.70;;;;;;;-149.78;100.00;50377.56;4823488;29;20044;-68
2022/03/13 01:16:38;;;;;;;13.95;6.00;;;;;;;-149.78;100.00;50371.69;4823505;29;20042;-68
2022/03/13 01:19:04;;;;;;;16.10;5.72;;;;;;;-149.78;100.00;50373.66;4823488;29;20073;-68
2022/03/13 01:21:33;;;;;;;13.20;4.88;;;;;;;-149.78;100.00;50373.66;4823324;29;20121;-69
2022/03/13 01:24:01;;;;;;;12.40;5.63;;;;;;;-149.78;100.00;50373.66;4823333;29;20151;-68
2022/03/13 01:26:29;;;;;;;13.57;7.13;;;;;;;-149.78;100.00;50356.06;4808888;29;20066;-69
2022/03/13 01:28:57;;;;;;;13.02;6.18;;;;;;;-149.78;100.00;50352.16;4827042;29;20030;-69
2022/03/13 01:31:26;;;;;;;14.00;6.20;;;;;;;-149.78;100.00;50365.84;4810922;29;20173;-69
2022/03/13 01:33:53;;;;;;;10.75;5.68;;;;;;;-149.78;100.00;50381.47;4825596;29;20058;-69
2022/03/13 01:36:18;;;;;;;12.60;6.47;;;;;;;-149.78;100.00;50373.66;4827068;29;20050;-69
2022/03/13 01:38:44;;;;;;;15.73;5.80;;;;;;;-149.78;100.00;50373.66;4810581;29;20054;-69
2022/03/13 01:41:10;;;;;;;16.92;6.05;;;;;;;-149.78;100.00;50365.84;4826767;29;20475;-69
2022/03/13 01:43:36;;;;;;;17.88;6.97;;;;;;;-149.78;100.00;50369.75;4826685;29;20060;-69
2022/03/13 01:46:04;;;;;;;17.70;6.85;;;;;;;-149.78;100.00;50385.38;4826620;29;20046;-69
2022/03/13 01:48:38;;;;;;;12.57;6.15;;;;;;;-149.78;100.00;50363.88;4826633;29;20083;-69
2022/03/13 01:51:05;;;;;;;18.98;7.05;;;;;;;-149.78;100.00;50393.22;4810274;29;20042;-69
2022/03/13 01:53:32;;;;;;;12.60;6.43;;;;;;;-149.78;100.00;50336.50;4826584;29;20042;-69
2022/03/13 01:55:58;;;;;;;16.38;6.72;;;;;;;-149.78;100.00;50369.75;4826557;29;20067;-70
2022/03/13 01:58:24;;;;;;;19.00;6.68;;;;;;;-149.78;100.00;50381.47;4811974;29;20045;-69
2022/03/13 02:00:49;;;;;;;13.52;6.78;;;;;;;-149.78;100.00;50377.56;4843712;29;20053;-69
2022/03/13 02:03:16;;;;;;;15.68;6.80;;;;;;;-149.78;100.00;50346.28;4844738;29;20034;-70
2022/03/13 02:05:45;;;;;;;16.10;7.03;;;;;;;-149.78;100.00;50381.47;4844776;29;20077;-69
2022/03/13 02:08:19;;;;;;;15.95;7.43;;;;;;;-149.78;100.00;50377.56;4843615;29;20044;-69
2022/03/13 02:10:46;;;;;;;15.82;7.85;;;;;;;-149.78;100.00;50346.28;4828072;29;20109;-69
2022/03/13 02:13:17;;;;;;;18.20;7.28;;;;;;;-149.78;100.00;50311.06;4813176;29;20030;-69
2022/03/13 02:15:43;;;;;;;18.20;8.02;;;;;;;-149.78;100.00;50346.28;4844687;29;20132;-69
2022/03/13 02:18:10;;;;;;;18.77;8.75;;;;;;;-149.78;100.00;50369.75;4844547;29;20030;-69
2022/03/13 02:20:41;;;;;;;17.33;8.77;;;;;;;-149.78;100.00;50404.94;4844111;29;20046;-70
2022/03/13 02:23:21;;;;;;;24.15;9.55;;;;;;;-149.78;100.00;50365.84;4825936;29;20491;-69
2022/03/13 02:25:49;;;;;;;17.30;8.52;;;;;;;-149.78;100.00;50365.84;4825898;29;20034;-69
2022/03/13 02:28:19;;;;;;;17.38;8.43;;;;;;;-149.78;100.00;50361.91;4825938;29;20121;-69
2022/03/13 02:30:46;;;;;;;17.83;8.50;;;;;;;-149.78;100.00;50383.44;4825741;29;20034;-69
2022/03/13 02:33:11;;;;;;;17.48;9.43;;;;;;;-149.78;100.00;50389.31;4843088;29;20030;-70
2022/03/13 02:35:40;;;;;;;19.50;9.38;;;;;;;-149.78;100.00;50342.38;4843830;29;20033;-69
2022/03/13 02:38:06;;;;;;;23.45;9.52;;;;;;;-149.78;100.00;50369.75;4843377;29;20042;-69
2022/03/13 02:40:32;;;;;;;21.55;9.23;;;;;;;-149.78;100.00;50385.38;4843556;29;20094;-70
2022/03/13 02:42:58;;;;;;;21.95;9.57;;;;;;;-149.78;100.00;50373.66;4843604;29;20042;-70
2022/03/13 02:45:34;;;;;;;21.92;10.00;;;;;;;-149.78;100.00;50367.78;4827390;29;20073;-70
2022/03/13 02:48:00;;;;;;;23.73;10.57;;;;;;;-149.78;100.00;50365.84;4835610;29;20038;-70
2022/03/13 02:50:26;;;;;;;21.58;10.25;;;;;;;-149.78;100.00;50399.09;4842298;29;20038;-69
2022/03/13 02:52:52;;;;;;;21.38;11.50;;;;;;;-149.78;100.00;50346.28;4826546;29;20578;-71
2022/03/13 02:55:18;;;;;;;20.48;11.18;;;;;;;-149.78;100.00;50354.09;4843485;29;20046;-70
2022/03/13 02:57:43;;;;;;;19.98;10.27;;;;;;;-149.78;100.00;50377.56;4841989;29;20037;-69
2022/03/13 03:00:10;;;;;;;18.40;8.90;;;;;;;-149.78;100.00;50365.84;4842250;29;20030;-69
2022/03/13 03:02:36;;;;;;;16.50;9.27;;;;;;;-149.78;100.00;50350.19;4816351;29;20039;-70
2022/03/13 03:05:11;;;;;;;18.83;9.68;;;;;;;-149.78;100.00;50401.03;4814084;29;20037;-70
2022/03/13 03:07:38;;;;;;;18.25;9.10;;;;;;;-149.78;100.00;50342.38;4843581;29;20510;-70
2022/03/13 03:10:04;;;;;;;18.73;8.88;;;;;;;-149.78;100.00;50363.88;4827397;29;20038;-70
2022/03/13 03:12:33;;;;;;;15.43;8.57;;;;;;;-149.78;100.00;50367.78;4811914;29;20513;-69
2022/03/13 03:14:59;;;;;;;21.08;9.95;;;;;;;-149.78;100.00;50346.28;4842418;29;20033;-69
2022/03/13 03:17:24;;;;;;;22.35;9.38;;;;;;;-149.78;100.00;50371.69;4827045;29;20037;-69
2022/03/13 03:19:50;;;;;;;18.33;9.55;;;;;;;-149.78;100.00;50387.34;4843475;29;20087;-69
2022/03/13 03:22:15;;;;;;;18.80;9.30;;;;;;;-149.78;100.00;50358.00;4830045;29;20046;-70
2022/03/13 03:24:41;;;;;;;19.23;9.38;;;;;;;-149.78;100.00;50363.88;4825100;29;20562;-69
2022/03/13 03:27:07;;;;;;;19.27;8.85;;;;;;;-149.78;100.00;50338.44;4825046;29;20487;-69
2022/03/13 03:29:33;;;;;;;19.75;9.68;;;;;;;-149.78;100.00;50373.66;4808494;29;20038;-69
2022/03/13 03:31:59;;;;;;;23.52;10.25;;;;;;;-149.78;100.00;50375.63;4808522;29;20042;-69
2022/03/13 03:34:26;;;;;;;20.27;9.02;;;;;;;-149.78;100.00;50381.47;4824537;29;20572;-69
2022/03/13 03:37:01;;;;;;;18.55;9.55;;;;;;;-149.78;100.00;50332.59;4824811;29;20030;-69
2022/03/13 03:39:30;;;;;;;21.45;10.05;;;;;;;-149.78;100.00;50336.50;4830227;29;20052;-69
2022/03/13 03:42:02;;;;;;;17.88;9.77;;;;;;;-149.78;100.00;50348.22;4829539;29;20043;-69
2022/03/13 03:44:28;;;;;;;22.67;9.25;;;;;;;-149.78;100.00;50373.66;4808803;29;20548;-69
2022/03/13 03:46:55;;;;;;;21.10;10.13;;;;;;;-149.78;100.00;50381.47;4823661;29;20430;-69
2022/03/13 03:49:20;;;;;;;21.42;9.77;;;;;;;-149.78;100.00;50359.97;4807322;29;20048;-69
2022/03/13 03:51:46;;;;;;;19.08;9.35;;;;;;;-149.78;100.00;50375.63;4824611;29;20042;-69
2022/03/13 03:54:14;;;;;;;18.00;9.52;;;;;;;-149.78;100.00;50387.34;4824714;29;20049;-69
2022/03/13 03:56:41;;;;;;;19.88;9.98;;;;;;;-149.78;100.00;50391.25;4828228;29;20129;-70
2022/03/13 03:59:07;;;;;;;18.35;10.65;;;;;;;-149.78;100.00;50338.44;4826575;29;20038;-69
2022/03/13 04:01:41;;;;;;;19.92;9.88;;;;;;;-149.78;100.00;50332.59;4842587;29;20029;-70
2022/03/13 04:04:08;;;;;;;21.80;9.85;;;;;;;-149.78;100.00;50330.63;4842764;29;20033;-69
2022/03/13 04:06:38;;;;;;;19.48;10.40;;;;;;;-149.78;100.00;50318.91;4826264;29;20042;-69
2022/03/13 04:09:08;;;;;;;24.10;9.65;;;;;;;-149.78;100.00;50371.69;4810955;29;20046;-69
2022/03/13 04:11:34;;;;;;;18.70;9.80;;;;;;;-149.78;100.00;50369.75;4842608;29;20041;-68
2022/03/13 04:14:00;;;;;;;20.00;9.70;;;;;;;-149.78;100.00;50358.00;4826273;29;20467;-69
2022/03/13 04:16:26;;;;;;;18.02;10.13;;;;;;;-149.78;100.00;50326.72;4826277;29;20038;-69
2022/03/13 04:18:54;;;;;;;23.30;10.35;;;;;;;-149.78;100.00;50338.44;4826037;29;20049;-69
2022/03/13 04:21:22;;;;;;;21.45;9.70;;;;;;;-149.78;100.00;50385.38;4836357;29;20117;-69
2022/03/13 04:23:48;;;;;;;17.00;9.40;;;;;;;-149.78;100.00;50361.91;4823866;29;20039;-70
2022/03/13 04:26:15;;;;;;;21.48;10.00;;;;;;;-149.78;100.00;50393.22;4824152;29;20098;-69
2022/03/13 04:28:41;;;;;;;18.88;9.95;;;;;;;-149.78;100.00;50338.44;4824201;29;20042;-69
2022/03/13 04:31:08;;;;;;;17.98;10.13;;;;;;;-149.78;100.00;50361.91;4822930;29;20046;-69
2022/03/13 04:33:35;;;;;;;21.23;9.82;;;;;;;-149.78;100.00;50377.56;4822687;29;20138;-69
2022/03/13 04:36:10;;;;;;;16.83;9.85;;;;;;;-149.78;100.00;50381.47;4824010;29;20044;-69
2022/03/13 04:38:37;;;;;;;18.67;9.50;;;;;;;-149.78;100.00;50361.91;4823942;29;20038;-70
2022/03/13 04:41:03;;;;;;;24.88;10.05;;;;;;;-149.78;100.00;50381.47;4841510;29;20114;-69
2022/03/13 04:43:29;;;;;;;20.38;9.90;;;;;;;-149.78;100.00;50358.00;4825604;29;20038;-69
2022/03/13 04:45:55;;;;;;;19.45;10.07;;;;;;;-149.78;100.00;50373.66;4839067;29;20053;-69
2022/03/13 04:48:21;;;;;;;19.52;10.15;;;;;;;-149.78;100.00;50369.75;4822685;29;20038;-70
2022/03/13 04:50:47;;;;;;;16.45;9.38;;;;;;;-149.78;100.00;50350.19;4831714;29;20079;-69
2022/03/13 04:53:13;;;;;;;17.90;9.05;;;;;;;-149.78;100.00;50350.19;4835604;29;20680;-69
2022/03/13 04:55:39;;;;;;;17.55;10.23;;;;;;;-149.78;100.00;50408.84;4828856;29;20118;-69
2022/03/13 04:58:06;;;;;;;18.35;10.05;;;;;;;-149.78;100.00;50381.47;4838277;29;20128;-69
2022/03/13 05:00:32;;;;;;;19.63;10.13;;;;;;;-149.78;100.00;50379.53;4825887;29;20044;-69
2022/03/13 05:02:59;;;;;;;18.85;10.13;;;;;;;-149.78;100.00;50350.19;4825653;29;20050;-69
2022/03/13 05:05:25;;;;;;;20.35;10.00;;;;;;;-149.78;100.00;50381.47;4825015;29;20046;-69
2022/03/13 05:07:50;;;;;;;19.15;9.30;;;;;;;-149.78;100.00;50401.03;4833212;29;20056;-70
2022/03/13 05:10:20;;;;;;;21.00;9.75;;;;;;;-149.78;100.00;50369.75;4842186;29;20049;-69
2022/03/13 05:12:46;;;;;;;18.58;9.88;;;;;;;-149.78;100.00;50367.78;4841124;29;20038;-69
2022/03/13 05:15:12;;;;;;;18.17;10.15;;;;;;;-149.78;100.00;50393.22;4842159;29;20044;-69
2022/03/13 05:17:38;;;;;;;21.58;10.25;;;;;;;-149.78;100.00;50377.56;4842274;29;20098;-69
2022/03/13 05:20:05;;;;;;;22.55;10.82;;;;;;;-149.78;100.00;50377.56;4842069;29;20045;-69
2022/03/13 05:22:31;;;;;;;20.77;10.02;;;;;;;-149.78;100.00;50385.38;4828564;29;20126;-69
2022/03/13 05:24:57;;;;;;;21.85;10.07;;;;;;;-149.78;100.00;50397.13;4833291;29;20099;-69
2022/03/13 05:27:24;;;;;;;17.25;9.73;;;;;;;-149.78;100.00;50350.19;4841943;29;20550;-69
2022/03/13 05:29:50;;;;;;;24.73;10.95;;;;;;;-149.78;100.00;50371.69;4842060;29;20042;-69
2022/03/13 05:32:15;;;;;;;21.20;10.38;;;;;;;-149.78;100.00;50385.38;4841751;29;20038;-69
2022/03/13 05:34:41;;;;;;;18.80;9.70;;;;;;;-149.78;100.00;50342.38;4841625;29;20054;-69
2022/03/13 05:37:08;;;;;;;21.83;10.43;;;;;;;-149.78;100.00;50371.69;4840989;29;20434;-69
2022/03/13 05:39:34;;;;;;;17.73;10.32;;;;;;;-149.78;100.00;50393.22;4841799;29;20034;-69
2022/03/13 05:42:00;;;;;;;17.60;9.40;;;;;;;-149.78;100.00;50369.75;4841268;29;20086;-69
2022/03/13 05:44:26;;;;;;;16.63;9.88;;;;;;;-149.78;100.00;50342.38;4841959;29;20079;-69
2022/03/13 05:46:52;;;;;;;19.02;9.80;;;;;;;-149.78;100.00;50352.16;4841857;29;20046;-69
2022/03/13 05:49:17;;;;;;;20.85;9.68;;;;;;;-149.78;100.00;50373.66;4841636;29;20090;-69
2022/03/13 05:51:43;;;;;;;19.60;9.98;;;;;;;-149.78;100.00;50379.53;4824833;29;20137;-69
2022/03/13 05:54:09;;;;;;;17.60;9.70;;;;;;;-149.78;100.00;50383.44;4809719;29;20383;-69
2022/03/13 05:56:35;;;;;;;19.48;10.02;;;;;;;-149.78;100.00;50373.66;4841199;29;20038;-69
2022/03/13 05:59:01;;;;;;;20.17;10.20;;;;;;;-149.78;100.00;50387.34;4839838;29;20054;-69
2022/03/13 06:01:26;;;;;;;21.27;9.93;;;;;;;-149.78;100.00;50381.47;4824849;29;20068;-69
2022/03/13 06:03:53;;;;;;;19.40;10.30;;;;;;;-149.78;100.00;50354.09;4824753;29;20380;-69
2022/03/13 06:06:20;;;;;;;18.88;10.18;;;;;;;-149.78;100.00;50361.91;4825047;29;20044;-69
2022/03/13 06:08:46;;;;;;;21.55;10.23;;;;;;;-149.78;100.00;50350.19;4841155;29;20042;-69
2022/03/13 06:11:12;;;;;;;19.65;8.82;;;;;;;-149.78;100.00;50381.47;4841100;29;20042;-69
2022/03/13 06:13:38;;;;;;;17.63;9.82;;;;;;;-149.78;100.00;50385.38;4826545;29;20038;-69
2022/03/13 06:16:04;;;;;;;18.17;9.30;;;;;;;-149.78;100.00;50342.38;4844534;29;20106;-69
2022/03/13 06:18:32;;;;;;;15.85;9.60;;;;;;;-149.78;100.00;50371.69;4844565;29;20499;-69
2022/03/13 06:20:58;;;;;;;18.92;9.60;;;;;;;-149.78;100.00;50367.78;4844605;29;20731;-69
2022/03/13 06:23:24;;;;;;;20.90;9.95;;;;;;;-149.78;100.00;50379.53;4827896;29;20125;-69
2022/03/13 06:25:50;;;;;;;21.50;9.95;;;;;;;-149.78;100.00;50361.91;4827802;29;20056;-69
2022/03/13 06:28:18;;;;;;;19.60;9.57;;;;;;;-149.78;100.00;50358.00;4844208;29;20041;-69
2022/03/13 06:30:44;;;;;;;16.42;9.68;;;;;;;-149.78;100.00;50401.03;4844144;29;20249;-69
2022/03/13 06:33:09;;;;;;;18.75;9.43;;;;;;;-149.78;100.00;50381.47;4842795;29;20034;-69
2022/03/13 06:35:35;;;;;;;19.55;8.98;;;;;;;-149.78;100.00;50354.09;4844583;29;20562;-69
2022/03/13 06:38:01;;;;;;;19.45;10.20;;;;;;;-149.78;100.00;50393.22;4844124;29;20755;-69
2022/03/13 06:40:27;;;;;;;21.35;10.75;;;;;;;-149.78;100.00;50365.84;4844197;29;20042;-70
2022/03/13 06:42:54;;;;;;;19.38;10.48;;;;;;;-149.78;100.00;50428.41;4844044;29;20533;-69
2022/03/13 06:45:21;;;;;;;17.63;10.05;;;;;;;-149.78;100.00;50397.13;4827571;29;20034;-69
2022/03/13 06:47:51;;;;;;;21.67;10.27;;;;;;;-149.78;100.00;50369.75;4844023;29;20066;-69
2022/03/13 06:50:19;;;;;;;22.33;10.07;;;;;;;-149.78;100.00;50381.47;4843650;29;20042;-69
2022/03/13 06:52:47;;;;;;;17.27;9.27;;;;;;;-149.78;100.00;50385.38;4843495;29;20113;-69
2022/03/13 06:55:13;;;;;;;16.65;9.80;;;;;;;-149.78;100.00;50393.22;4827073;29;20049;-69
2022/03/13 06:57:43;;;;;;;18.15;9.73;;;;;;;-149.78;100.00;50359.97;4843285;29;20490;-69
2022/03/13 07:00:10;;;;;;;17.02;9.05;;;;;;;-149.78;100.00;50389.31;4825756;29;20038;-70
2022/03/13 07:02:36;;;;;;;17.00;8.60;;;;;;;-149.78;100.00;50342.38;4819668;29;20034;-71
2022/03/13 07:05:02;;;;;;;15.88;8.10;;;;;;;-149.78;100.00;50377.56;4822476;29;20399;-70
2022/03/13 07:07:28;;;;;;;15.60;8.73;;;;;;;-149.78;100.00;50389.31;4821159;29;20119;-69
2022/03/13 07:09:57;;;;;;;13.52;7.40;;;;;;;-149.78;100.00;50410.81;4823536;29;20099;-69
2022/03/13 07:12:28;;;;;;;13.98;8.25;;;;;;;-149.78;100.00;50379.53;4796662;29;20499;-70
2022/03/13 07:14:57;;;;;;;12.95;7.53;;;;;;;-149.78;100.00;50350.19;4820936;29;20034;-69
2022/03/13 07:17:24;;;;;;;11.95;7.30;;;;;;;-149.78;100.00;50401.03;4809162;29;20034;-69
2022/03/13 07:19:50;;;;;;;16.25;7.85;;;;;;;-149.78;100.00;50350.19;4822556;29;20053;-69
2022/03/13 07:22:16;;;;;;;14.27;8.07;;;;;;;-149.78;100.00;50369.75;4822706;29;20038;-69
2022/03/13 07:24:46;;;;;;;11.73;6.78;;;;;;;-149.78;100.00;50371.69;4821897;29;20129;-69
2022/03/13 07:27:14;;;;;;;12.35;7.00;;;;;;;-149.78;100.00;50350.19;4793301;29;20045;-69
2022/03/13 07:29:39;;;;;;;13.38;7.75;;;;;;;-149.78;100.00;50383.44;4821329;29;20026;-70
2022/03/13 07:32:05;;;;;;;13.25;7.28;;;;;;;-149.78;100.00;50393.22;4819214;29;20061;-69
2022/03/13 07:34:31;;;;;;;14.57;8.05;;;;;;;-149.78;100.00;50385.38;4819238;29;20074;-69
2022/03/13 07:36:57;;;;;;;15.77;8.05;;;;;;;-149.78;100.00;50389.31;4788838;29;20042;-68
2022/03/13 07:39:24;;;;;;;14.65;8.18;;;;;;;-149.78;100.00;50371.69;4821922;29;20038;-67
2022/03/13 07:41:51;;;;;;;15.00;8.10;;;;;;;-149.78;100.00;50369.75;4814636;29;20034;-69
2022/03/13 07:44:17;;;;;;;16.65;8.38;;;;;;;-149.78;100.00;50397.13;4816748;29;20504;-68
2022/03/13 07:46:43;;;;;;;15.40;8.52;;;;;;;-149.78;100.00;50344.31;4819435;29;20038;-69
2022/03/13 07:49:09;;;;;;;18.00;9.25;;;;;;;-149.78;100.00;50369.75;4819554;29;20069;-68
2022/03/13 07:51:34;;;;;;;16.50;9.50;;;;;;;-149.78;100.00;50373.66;4816217;29;20046;-71
2022/03/13 07:54:02;;;;;;;17.17;9.00;;;;;;;-149.78;100.00;50365.84;4799602;29;20038;-69
2022/03/13 07:56:28;;;;;;;14.45;8.35;;;;;;;-149.78;100.00;50389.31;4808032;29;20035;-69
2022/03/13 07:58:54;;;;;;;17.17;9.30;;;;;;;-149.78;100.00;50361.91;4799297;29;20655;-69
2022/03/13 08:01:21;;;;;;;16.45;9.55;;;;;;;-149.78;100.00;50373.66;4794668;29;20046;-69
2022/03/13 08:03:47;;;;;;;16.02;9.30;;;;;;;-149.78;100.00;50365.84;4797549;29;20046;-69
2022/03/13 08:06:14;;;;;;;15.88;9.70;;;;;;;-149.78;100.00;50334.53;4800668;29;20041;-69
2022/03/13 08:08:39;;;;;;;17.55;9.95;;;;;;;-149.78;100.00;50361.91;4812073;29;20117;-69
2022/03/13 08:11:06;;;;;;;15.10;9.13;;;;;;;-149.78;100.00;50393.22;4812474;29;20035;-69
2022/03/13 08:13:32;;;;;;;20.17;9.73;;;;;;;-149.78;100.00;50385.38;4815137;29;20045;-69
2022/03/13 08:16:00;;;;;;;15.20;9.40;;;;;;;-149.78;100.00;50377.56;4795412;29;20071;-68
2022/03/13 08:18:27;;;;;;;14.38;8.90;;;;;;;-149.78;100.00;50401.03;4818353;29;20042;-69
2022/03/13 08:20:53;;;;;;;16.73;9.07;;;;;;;-149.78;100.00;50408.84;4796688;29;20419;-64
2022/03/13 08:23:19;;;;;;;18.50;9.52;;;;;;;-149.78;100.00;50359.97;4819481;29;20045;-69
2022/03/13 08:25:45;;;;;;;16.50;9.73;;;;;;;-149.78;100.00;50369.75;4819619;29;20046;-68
2022/03/13 08:28:11;;;;;;;17.00;9.35;;;;;;;-149.78;100.00;50389.31;4815101;29;20043;-69
2022/03/13 08:30:36;;;;;;;18.13;9.85;;;;;;;-149.78;100.00;50358.00;4787215;29;20038;-70
2022/03/13 08:33:02;;;;;;;19.80;9.80;;;;;;;-149.78;100.00;50342.38;4813095;29;20705;-70
2022/03/13 08:35:29;;;;;;;14.82;8.65;;;;;;;-149.78;100.00;50369.75;4787616;29;20050;-69
2022/03/13 08:37:55;;;;;;;18.50;9.02;;;;;;;-149.78;100.00;50361.91;4818979;29;20767;-69
2022/03/13 08:40:25;;;;;;;15.18;8.75;;;;;;;-149.78;100.00;50358.00;4806084;29;20049;-70
2022/03/13 08:42:53;;;;;;;16.52;8.93;;;;;;;-149.78;100.00;50393.22;4818579;29;20532;-70
2022/03/13 08:45:19;;;;;;;14.65;8.75;;;;;;;-149.78;100.00;50346.28;4819848;29;20053;-70
2022/03/13 08:47:46;;;;;;;14.07;8.32;;;;;;;-149.78;100.00;50354.09;4803743;29;20133;-69
2022/03/13 08:50:14;;;;;;;14.75;8.52;;;;;;;-149.78;100.00;50369.75;4811864;29;20070;-68
2022/03/13 08:52:40;;;;;;;17.17;8.27;;;;;;;-149.78;100.00;50330.63;4800756;29;20372;-67
2022/03/13 08:55:08;;;;;;;15.18;8.57;;;;;;;-149.78;100.00;50367.78;4801094;29;20041;-67
2022/03/13 08:57:34;;;;;;;17.30;8.77;;;;;;;-149.78;100.00;50373.66;4814979;29;20065;-67
2022/03/13 09:00:01;;;;;;;14.63;7.72;;;;;;;-149.78;100.00;50354.09;4827327;29;20704;-68
2022/03/13 09:02:27;;;;;;;13.40;7.80;;;;;;;-149.78;100.00;50365.84;4821254;29;20035;-68
2022/03/13 09:04:53;;;;;;;14.18;7.78;;;;;;;-149.78;100.00;50365.84;4806433;29;20523;-69
2022/03/13 09:07:19;;;;;;;14.55;9.15;;;;;;;-149.78;100.00;50356.06;4820455;29;20063;-68
2022/03/13 09:09:46;;;;;;;12.73;7.55;;;;;;;-149.78;100.00;50350.19;4800493;29;20376;-67
2022/03/13 09:12:12;;;;;;;18.15;7.93;;;;;;;-149.78;100.00;50352.16;4803500;29;20157;-67
2022/03/13 09:14:39;;;;;;;13.10;7.13;;;;;;;-149.78;100.00;50385.38;4799411;29;20035;-68
2022/03/13 09:17:05;;;;;;;11.88;7.25;;;;;;;-149.78;100.00;50342.38;4800316;29;20034;-69
2022/03/13 09:19:31;;;;;;;13.95;7.50;;;;;;;-149.78;100.00;50338.44;4818020;29;20041;-69
2022/03/13 09:21:57;;;;;;;18.08;7.82;;;;;;;-149.78;100.00;50365.84;4820039;29;20046;-70
2022/03/13 09:24:23;;;;;;;10.60;6.70;;;;;;;-149.78;100.00;50361.91;4820071;29;20106;-69
2022/03/13 09:26:49;;;;;;;11.98;6.68;;;;;;;-149.78;100.00;50342.38;4802642;29;20087;-69
2022/03/13 09:29:15;;;;;;;11.25;6.30;;;;;;;-149.78;100.00;50381.47;4800219;29;20547;-69
2022/03/13 09:31:41;;;;;;;11.95;6.60;;;;;;;-149.78;100.00;50314.97;4801921;29;20050;-67
2022/03/13 09:34:07;;;;;;;13.77;6.13;;;;;;;-149.78;100.00;50314.97;4803674;29;20138;-69
2022/03/13 09:36:37;;;;;;;11.88;6.18;;;;;;;-149.78;100.00;50303.25;4820565;29;20042;-67
2022/03/13 09:39:07;;;;;;;8.95;5.80;;;;;;;-149.78;100.00;50344.31;4812743;29;20045;-68
2022/03/13 09:41:33;;;;;;;12.50;5.47;;;;;;;-149.78;100.00;50303.25;4816106;29;20031;-71
2022/03/13 09:43:59;;;;;;;6.97;4.78;;;;;;;-149.78;100.00;50248.50;4821701;29;20031;-68
2022/03/13 09:46:24;;;;;;;7.25;4.53;;;;;;;-149.78;100.00;50271.97;4821910;29;20554;-69
2022/03/13 09:48:52;;;;;;;7.18;3.92;;;;;;;-149.78;100.00;50299.34;4805197;29;20038;-68
2022/03/13 09:51:18;;;;;;;7.07;4.05;;;;;;;-149.78;100.00;50314.97;4823248;29;20034;-68
2022/03/13 09:53:44;;;;;;;8.40;4.25;;;;;;;-149.78;100.00;50330.63;4825118;29;20026;-67
2022/03/13 09:56:09;;;;;;;6.72;4.25;;;;;;;-149.78;100.00;50303.25;4825134;29;20490;-67
2022/03/13 09:58:35;;;;;;;6.70;4.20;;;;;;;-149.78;100.00;50303.25;4826042;29;20050;-68
2022/03/13 10:01:02;;;;;;;6.78;4.15;;;;;;;-149.78;100.00;50299.34;4822997;29;20046;-68
2022/03/13 10:03:28;;;;;;;9.25;4.32;;;;;;;-149.78;100.00;50320.84;4825065;29;20487;-67
2022/03/13 10:05:55;;;;;;;6.93;3.78;;;;;;;-149.78;100.00;50314.97;4824960;29;20134;-68
2022/03/13 10:08:30;;;;;;;8.38;4.28;;;;;;;-149.78;100.00;50307.16;4821751;29;20034;-68
2022/03/13 10:10:57;;;;;;;6.68;3.75;;;;;;;-149.78;100.00;50322.81;4825020;29;20050;-68
2022/03/13 10:13:45;;;;;;;7.22;3.80;;;;;;;-149.78;100.00;50307.16;4817310;29;20393;-68
2022/03/13 10:16:22;;;;;;;8.80;3.63;;;;;;;-149.78;100.00;50307.16;4814866;29;20070;-69
2022/03/13 10:18:48;;;;;;;10.00;3.42;;;;;;;-149.78;100.00;50311.06;4822309;29;20130;-68
2022/03/13 10:21:19;;;;;;;7.90;3.22;;;;;;;-149.78;100.00;50291.50;4824798;29;20034;-68
2022/03/13 10:23:48;;;;;;;8.77;3.35;;;;;;;-149.78;100.00;50291.50;4824892;29;20046;-71
2022/03/13 10:26:17;;;;;;;6.03;3.50;;;;;;;-149.78;100.00;50314.97;4824821;29;20034;-68
2022/03/13 10:28:43;;;;;;;8.45;3.42;;;;;;;-149.78;100.00;50303.25;4805476;29;20038;-68
2022/03/13 10:31:17;;;;;;;10.20;2.95;;;;;;;-149.78;100.00;50295.44;4821925;29;20041;-69
2022/03/13 10:33:43;;;;;;;10.10;3.08;;;;;;;-149.78;100.00;50314.97;4822346;29;20836;-70
2022/03/13 10:36:31;;;;;;;8.35;3.03;;;;;;;-149.78;100.00;50291.50;4822731;29;20026;-68
2022/03/13 10:39:01;;;;;;;8.65;2.95;;;;;;;-149.78;100.00;50279.78;4821833;29;20057;-70
2022/03/13 10:41:47;;;;;;;8.70;2.90;;;;;;;-149.78;100.00;50299.34;4814624;29;20057;-68
2022/03/13 10:44:20;;;;;;;9.05;2.90;;;;;;;-149.78;100.00;50299.34;4806547;29;20046;-69
2022/03/13 10:46:53;;;;;;;5.80;2.33;;;;;;;-149.78;100.00;50297.38;4804508;29;20046;-70
2022/03/13 10:49:45;;;;;;;6.97;2.33;;;;;;;-149.78;100.00;50309.13;4822965;29;20460;-71
2022/03/13 10:52:31;;;;;;;15.18;3.83;;;;;;;-149.78;100.00;50270.00;4823971;29;20038;-71
2022/03/13 10:55:16;;;;;;;8.38;2.80;;;;;;;-149.78;100.00;50264.13;4808913;29;20038;-71
2022/03/13 10:57:53;;;;;;;9.20;2.28;;;;;;;-149.78;100.00;50295.44;4835303;29;20034;-72
2022/03/13 11:00:21;;;;;;;8.23;2.40;;;;;;;-149.78;100.00;50228.94;4774014;29;20104;-71
2022/03/13 11:02:48;;;;;;;6.57;2.20;;;;;;;-149.78;100.00;50248.50;4806938;29;20122;-70